Time;durP1;ratioP1;P1;durP2;ratioP2;P2;SDS_P1;SDS_P2;PMS_P1;PMS_P2;Temp;Humidity;BMP_temperature;BMP_pressure;BME280_temperature;BME280_humidity;BME280_pressure;Samples;Min_cycle;Max_cycle;Signal;HPM_P1;HPM_P2
2023/01/28 00:00:11;;;;;;;62.20;21.75;;;;;;;;;;8487400;27;20126;-86
2023/01/28 00:04:36;;;;;;;22.88;8.88;;;;;;;;;;8489668;27;20046;-92
2023/01/28 00:08:39;;;;;;;37.17;14.68;;;;;;;;;;8488902;27;20047;-93
2023/01/28 00:12:42;;;;;;;20.45;9.77;;;;;;;;;;8497809;27;20482;-87
2023/01/28 00:16:45;;;;;;;44.85;16.60;;;;;;;;;;8493036;27;20073;-85
2023/01/28 00:20:58;;;;;;;21.58;9.48;;;;;;;;;;8490380;27;20093;-86
2023/01/28 00:25:02;;;;;;;22.33;9.70;;;;;;;;;;8482261;27;20130;-92
2023/01/28 00:29:04;;;;;;;25.80;11.00;;;;;;;;;;8477585;27;20071;-91
2023/01/28 00:33:07;;;;;;;25.58;11.60;;;;;;;;;;8495391;27;20051;-86
2023/01/28 00:37:12;;;;;;;34.15;13.02;;;;;;;;;;8493058;27;20077;-86
2023/01/28 00:41:16;;;;;;;21.88;9.38;;;;;;;;;;8475087;27;20118;-88
2023/01/28 00:45:19;;;;;;;29.17;11.43;;;;;;;;;;8500602;27;20073;-86
2023/01/28 00:49:22;;;;;;;26.33;11.55;;;;;;;;;;8487498;27;20066;-86
2023/01/28 00:53:27;;;;;;;25.20;10.10;;;;;;;;;;8494105;27;20043;-87
2023/01/28 00:57:30;;;;;;;26.60;10.40;;;;;;;;;;8481435;27;20139;-87
2023/01/28 01:01:34;;;;;;;20.20;9.60;;;;;;;;;;8481532;27;20506;-89
2023/01/28 01:05:37;;;;;;;19.27;9.63;;;;;;;;;;8474830;27;20050;-90
2023/01/28 01:09:41;;;;;;;23.88;11.02;;;;;;;;;;8473488;27;20118;-85
2023/01/28 01:13:44;;;;;;;27.05;11.82;;;;;;;;;;8473299;27;20042;-86
2023/01/28 01:17:48;;;;;;;16.70;8.20;;;;;;;;;;8499455;27;20815;-88
2023/01/28 01:21:51;;;;;;;22.50;9.40;;;;;;;;;;8483485;27;20045;-90
2023/01/28 01:25:56;;;;;;;19.40;9.70;;;;;;;;;;8491730;27;20046;-87
2023/01/28 01:29:59;;;;;;;25.20;11.30;;;;;;;;;;8489555;27;20043;-87
2023/01/28 01:34:01;;;;;;;26.75;11.60;;;;;;;;;;8482757;27;20412;-86
2023/01/28 01:38:04;;;;;;;23.25;11.13;;;;;;;;;;8487582;27;20074;-87
2023/01/28 01:42:11;;;;;;;23.60;10.82;;;;;;;;;;8481931;27;20042;-87
2023/01/28 01:46:17;;;;;;;16.13;7.38;;;;;;;;;;8480035;27;20046;-88
2023/01/28 01:50:25;;;;;;;22.02;9.00;;;;;;;;;;8483868;27;20066;-86
2023/01/28 01:54:30;;;;;;;22.27;10.25;;;;;;;;;;8478039;27;20122;-90
2023/01/28 01:58:40;;;;;;;45.55;17.80;;;;;;;;;;8492649;27;20117;-91
2023/01/28 02:02:46;;;;;;;18.98;8.93;;;;;;;;;;8482015;27;20067;-93
2023/01/28 02:06:49;;;;;;;22.58;8.65;;;;;;;;;;8487263;27;20047;-86
2023/01/28 02:10:56;;;;;;;15.05;7.80;;;;;;;;;;8488925;27;20042;-90
2023/01/28 02:15:03;;;;;;;18.92;8.45;;;;;;;;;;8481831;27;20127;-85
2023/01/28 02:19:08;;;;;;;21.05;8.80;;;;;;;;;;8470510;27;20055;-86
2023/01/28 02:23:28;;;;;;;17.17;7.38;;;;;;;;;;8478953;27;20043;-85
2023/01/28 02:27:38;;;;;;;26.38;9.95;;;;;;;;;;8475325;27;20067;-86
2023/01/28 02:31:48;;;;;;;21.00;9.52;;;;;;;;;;8476423;27;20039;-91
2023/01/28 02:35:54;;;;;;;22.63;9.15;;;;;;;;;;8483584;27;20034;-91
2023/01/28 02:40:00;;;;;;;21.80;10.68;;;;;;;;;;8465133;28;20051;-85
2023/01/28 02:44:03;;;;;;;21.88;9.52;;;;;;;;;;8464721;27;20044;-86
2023/01/28 02:48:07;;;;;;;22.83;9.35;;;;;;;;;;8483636;27;20043;-85
2023/01/28 02:56:54;;;;;;;20.75;9.43;;;;;;;;;;8468618;27;20043;-86
2023/01/28 03:01:08;;;;;;;21.10;9.13;;;;;;;;;;8478380;27;20114;-92
2023/01/28 03:05:21;;;;;;;16.10;8.82;;;;;;;;;;8466847;28;20118;-87
2023/01/28 03:09:25;;;;;;;21.20;9.50;;;;;;;;;;8486222;28;20043;-92
2023/01/28 03:39:51;;;;;;;22.88;10.10;;;;;;;;;;8479196;28;20091;-88
2023/01/28 03:43:54;;;;;;;22.77;9.48;;;;;;;;;;8468607;28;20388;-88
2023/01/28 03:47:57;;;;;;;19.48;9.70;;;;;;;;;;8472145;28;20613;-87
2023/01/28 03:52:01;;;;;;;25.30;10.23;;;;;;;;;;8478443;28;20043;-88
2023/01/28 03:56:06;;;;;;;21.98;9.82;;;;;;;;;;8477500;28;20046;-87
2023/01/28 04:00:10;;;;;;;22.67;11.07;;;;;;;;;;8472494;28;20052;-87
2023/01/28 04:04:21;;;;;;;22.70;10.13;;;;;;;;;;8475705;28;20044;-87
2023/01/28 04:08:25;;;;;;;22.00;10.33;;;;;;;;;;8469171;27;20059;-87
2023/01/28 04:12:29;;;;;;;26.63;10.82;;;;;;;;;;8491641;27;20091;-88
2023/01/28 04:16:32;;;;;;;25.08;10.18;;;;;;;;;;8483506;27;20044;-89
2023/01/28 04:20:35;;;;;;;23.77;10.90;;;;;;;;;;8484210;27;20031;-91
2023/01/28 04:24:38;;;;;;;24.73;10.07;;;;;;;;;;8490733;27;20145;-90
2023/01/28 04:28:42;;;;;;;23.45;10.65;;;;;;;;;;8482807;27;20046;-93
2023/01/28 04:32:47;;;;;;;19.52;10.25;;;;;;;;;;8481924;27;20414;-86
2023/01/28 04:36:50;;;;;;;23.80;11.10;;;;;;;;;;8487419;27;20565;-88
2023/01/28 04:40:54;;;;;;;25.17;11.55;;;;;;;;;;8502027;27;20118;-86
2023/01/28 04:44:58;;;;;;;25.67;10.68;;;;;;;;;;8493155;27;20463;-87
2023/01/28 04:49:02;;;;;;;27.38;11.60;;;;;;;;;;8477160;27;20471;-85
2023/01/28 04:53:05;;;;;;;26.42;10.82;;;;;;;;;;8485746;27;20040;-91
2023/01/28 04:57:08;;;;;;;27.70;10.23;;;;;;;;;;8468753;27;20421;-86
2023/01/28 05:01:12;;;;;;;19.42;9.45;;;;;;;;;;8494482;27;20044;-90
2023/01/28 05:05:15;;;;;;;25.20;10.93;;;;;;;;;;8480962;27;20470;-86
2023/01/28 05:09:18;;;;;;;23.55;10.40;;;;;;;;;;8478754;27;20181;-87
2023/01/28 05:13:21;;;;;;;24.20;11.38;;;;;;;;;;8472696;27;20651;-86
2023/01/28 05:17:26;;;;;;;29.67;11.80;;;;;;;;;;8466001;27;20070;-89
2023/01/28 05:21:29;;;;;;;27.92;12.07;;;;;;;;;;8478196;27;20459;-90
2023/01/28 05:25:32;;;;;;;23.58;11.27;;;;;;;;;;8484553;27;20122;-89
2023/01/28 05:29:35;;;;;;;29.80;11.90;;;;;;;;;;8480517;27;20047;-90
2023/01/28 05:33:40;;;;;;;28.40;11.63;;;;;;;;;;8474077;27;20062;-91
2023/01/28 05:37:43;;;;;;;31.35;12.23;;;;;;;;;;8476294;27;20164;-91
2023/01/28 05:41:46;;;;;;;22.75;9.85;;;;;;;;;;8466910;27;20050;-88
2023/01/28 05:45:49;;;;;;;24.13;11.07;;;;;;;;;;8492874;27;20483;-88
2023/01/28 05:49:53;;;;;;;31.92;12.45;;;;;;;;;;8499976;27;20126;-90
2023/01/28 05:53:56;;;;;;;34.42;14.77;;;;;;;;;;8482329;27;20048;-90
2023/01/28 05:57:59;;;;;;;25.10;11.05;;;;;;;;;;8478499;27;20547;-89
2023/01/28 06:02:01;;;;;;;27.23;11.63;;;;;;;;;;8450259;28;20051;-89
2023/01/28 06:06:06;;;;;;;30.30;11.98;;;;;;;;;;8465994;27;20124;-87
2023/01/28 06:10:10;;;;;;;24.33;11.13;;;;;;;;;;8483926;27;20043;-89
2023/01/28 06:14:13;;;;;;;33.97;11.55;;;;;;;;;;8473964;27;20639;-87
2023/01/28 06:18:16;;;;;;;31.15;13.63;;;;;;;;;;8483988;27;20121;-85
2023/01/28 06:22:21;;;;;;;30.40;13.00;;;;;;;;;;8471989;27;20047;-86
2023/01/28 06:26:24;;;;;;;29.08;12.95;;;;;;;;;;8495539;27;20058;-86
2023/01/28 06:30:27;;;;;;;32.38;12.70;;;;;;;;;;8485933;27;20077;-88
2023/01/28 06:34:30;;;;;;;25.67;11.32;;;;;;;;;;8470222;27;20119;-86
2023/01/28 06:38:34;;;;;;;23.90;12.55;;;;;;;;;;8471266;27;20125;-87
2023/01/28 06:42:37;;;;;;;28.80;11.73;;;;;;;;;;8467566;27;20475;-88
2023/01/28 06:46:40;;;;;;;29.90;11.77;;;;;;;;;;8476535;27;20071;-87
2023/01/28 06:50:43;;;;;;;43.50;15.52;;;;;;;;;;8488734;27;20062;-86
2023/01/28 06:54:47;;;;;;;68.88;18.85;;;;;;;;;;8469949;27;20040;-86
2023/01/28 06:58:50;;;;;;;34.45;13.88;;;;;;;;;;8469428;27;20440;-86
2023/01/28 07:02:56;;;;;;;35.97;13.70;;;;;;;;;;8464490;28;20448;-93
2023/01/28 07:06:59;;;;;;;37.45;13.80;;;;;;;;;;8467209;28;20043;-95
2023/01/28 07:11:04;;;;;;;29.30;13.63;;;;;;;;;;8489322;28;20046;-91
2023/01/28 07:15:10;;;;;;;31.13;13.90;;;;;;;;;;8474574;28;20386;-91
2023/01/28 07:19:13;;;;;;;26.95;12.10;;;;;;;;;;8485426;28;20043;-85
2023/01/28 07:23:16;;;;;;;33.42;13.32;;;;;;;;;;8489872;28;20112;-87
2023/01/28 07:27:20;;;;;;;42.58;15.23;;;;;;;;;;8487323;28;20532;-85
2023/01/28 07:31:23;;;;;;;29.80;13.43;;;;;;;;;;8481370;28;20081;-85
2023/01/28 07:35:27;;;;;;;37.75;16.55;;;;;;;;;;8466665;28;20062;-92
2023/01/28 07:39:30;;;;;;;38.42;15.80;;;;;;;;;;8478554;28;20123;-91
2023/01/28 07:43:34;;;;;;;34.38;15.48;;;;;;;;;;8479381;27;20054;-87
2023/01/28 07:47:37;;;;;;;18.02;7.93;;;;;;;;;;8488912;27;20039;-88
2023/01/28 07:51:40;;;;;;;34.85;14.43;;;;;;;;;;8478893;27;20084;-88
2023/01/28 07:55:43;;;;;;;38.85;15.02;;;;;;;;;;8493243;27;20073;-88
2023/01/28 07:59:47;;;;;;;32.55;14.38;;;;;;;;;;8485724;27;20039;-86
2023/01/28 08:03:50;;;;;;;34.25;13.35;;;;;;;;;;8472366;27;20115;-91
2023/01/28 08:07:53;;;;;;;33.38;15.27;;;;;;;;;;8499392;27;20039;-89
2023/01/28 08:11:56;;;;;;;44.60;17.33;;;;;;;;;;8486237;27;20047;-91
2023/01/28 08:16:01;;;;;;;31.63;15.45;;;;;;;;;;8475258;27;20112;-89
2023/01/28 08:20:06;;;;;;;35.53;14.25;;;;;;;;;;8473679;27;20199;-90
2023/01/28 08:24:09;;;;;;;37.35;15.60;;;;;;;;;;8493810;27;20043;-93
2023/01/28 08:28:13;;;;;;;31.40;12.45;;;;;;;;;;8478880;27;20047;-90
2023/01/28 08:32:18;;;;;;;25.30;10.65;;;;;;;;;;8482253;27;20060;-91
2023/01/28 08:36:21;;;;;;;32.35;14.38;;;;;;;;;;8478693;27;20483;-91
2023/01/28 08:40:24;;;;;;;37.50;13.50;;;;;;;;;;8479439;27;20559;-88
2023/01/28 08:44:27;;;;;;;36.80;15.13;;;;;;;;;;8485653;27;20097;-93
2023/01/28 08:48:31;;;;;;;37.08;13.82;;;;;;;;;;8483132;27;20134;-90
2023/01/28 08:52:34;;;;;;;34.67;13.30;;;;;;;;;;8490259;27;20085;-92
2023/01/28 08:56:43;;;;;;;33.80;14.25;;;;;;;;;;8474622;27;20047;-91
2023/01/28 09:00:47;;;;;;;42.10;15.35;;;;;;;;;;8479321;27;20039;-91
2023/01/28 09:04:51;;;;;;;36.92;15.75;;;;;;;;;;8476234;27;20388;-86
2023/01/28 09:08:57;;;;;;;42.78;16.17;;;;;;;;;;8485160;27;20050;-93
2023/01/28 09:13:06;;;;;;;38.22;15.43;;;;;;;;;;8478035;27;20040;-89
2023/01/28 09:17:15;;;;;;;26.35;9.93;;;;;;;;;;8477024;27;20124;-90
2023/01/28 09:21:25;;;;;;;34.80;15.73;;;;;;;;;;8477641;27;20059;-91
2023/01/28 09:25:36;;;;;;;33.20;13.32;;;;;;;;;;8480285;27;20058;-90
2023/01/28 09:29:39;;;;;;;39.30;14.20;;;;;;;;;;8471630;27;20039;-89
2023/01/28 09:33:42;;;;;;;38.33;14.98;;;;;;;;;;8477745;27;20067;-91
2023/01/28 09:37:48;;;;;;;36.40;14.57;;;;;;;;;;8481041;27;20179;-90
2023/01/28 09:42:03;;;;;;;32.60;14.23;;;;;;;;;;8481399;27;20514;-90
2023/01/28 09:46:07;;;;;;;38.55;16.35;;;;;;;;;;8485099;27;20035;-91
2023/01/28 09:50:17;;;;;;;57.72;26.90;;;;;;;;;;8467916;27;20047;-89
2023/01/28 09:54:30;;;;;;;42.78;18.80;;;;;;;;;;8475799;27;20071;-91
2023/01/28 09:58:36;;;;;;;34.75;14.10;;;;;;;;;;8496532;27;20070;-91
2023/01/28 10:02:55;;;;;;;34.20;14.90;;;;;;;;;;8480486;27;20047;-90
2023/01/28 10:07:14;;;;;;;28.77;12.50;;;;;;;;;;8474112;27;20220;-91
2023/01/28 10:11:29;;;;;;;32.17;12.68;;;;;;;;;;8462172;27;20069;-89
2023/01/28 10:15:54;;;;;;;36.78;14.50;;;;;;;;;;8490694;27;20126;-90
2023/01/28 10:20:06;;;;;;;38.63;15.90;;;;;;;;;;8480904;27;20051;-88
2023/01/28 10:24:15;;;;;;;30.67;13.93;;;;;;;;;;8482936;27;20046;-90
2023/01/28 10:28:24;;;;;;;42.17;16.33;;;;;;;;;;8471197;27;20126;-92
2023/01/28 10:32:32;;;;;;;46.97;16.02;;;;;;;;;;8473943;27;20137;-91
2023/01/28 10:36:36;;;;;;;41.47;15.65;;;;;;;;;;8483967;27;20122;-91
2023/01/28 10:40:41;;;;;;;39.03;15.82;;;;;;;;;;8483542;27;20052;-92
2023/01/28 10:44:47;;;;;;;48.60;18.08;;;;;;;;;;8478339;27;20047;-91
2023/01/28 10:49:00;;;;;;;38.70;16.58;;;;;;;;;;8474757;27;20132;-94
2023/01/28 10:53:06;;;;;;;45.00;17.58;;;;;;;;;;8469492;27;20131;-93
2023/01/28 10:57:16;;;;;;;38.10;16.98;;;;;;;;;;8474915;27;20057;-91
2023/01/28 11:01:21;;;;;;;43.13;18.05;;;;;;;;;;8485340;27;20126;-90
2023/01/28 11:05:28;;;;;;;44.78;17.88;;;;;;;;;;8478399;27;20067;-92
2023/01/28 11:09:33;;;;;;;32.88;13.63;;;;;;;;;;8481296;27;20043;-93
2023/01/28 11:13:50;;;;;;;35.05;14.27;;;;;;;;;;8468582;28;20047;-91
2023/01/28 11:17:58;;;;;;;41.85;16.80;;;;;;;;;;8481178;27;20047;-93
2023/01/28 11:22:02;;;;;;;41.10;17.80;;;;;;;;;;8473935;27;20071;-92
2023/01/28 11:26:08;;;;;;;51.03;21.05;;;;;;;;;;8484823;27;20052;-93
2023/01/28 11:30:22;;;;;;;36.10;14.05;;;;;;;;;;8482034;27;20118;-92
2023/01/28 11:34:31;;;;;;;55.88;21.90;;;;;;;;;;8479818;27;20079;-93
2023/01/28 11:38:34;;;;;;;49.17;18.83;;;;;;;;;;8485502;27;20047;-93
2023/01/28 11:42:38;;;;;;;48.30;20.15;;;;;;;;;;8486716;27;20403;-92
2023/01/28 11:46:54;;;;;;;63.92;23.52;;;;;;;;;;8491550;27;20120;-93
2023/01/28 11:51:05;;;;;;;53.78;19.35;;;;;;;;;;8483976;27;20047;-92
2023/01/28 11:55:22;;;;;;;45.88;19.52;;;;;;;;;;8475117;27;20034;-91
2023/01/28 11:59:47;;;;;;;64.07;25.33;;;;;;;;;;8486970;27;20517;-92
2023/01/28 12:04:23;;;;;;;55.05;20.60;;;;;;;;;;8471576;27;20046;-93
2023/01/28 12:08:34;;;;;;;42.17;16.23;;;;;;;;;;8482562;27;20710;-90
2023/01/28 12:12:59;;;;;;;57.70;21.83;;;;;;;;;;8493110;27;20047;-89
2023/01/28 12:17:14;;;;;;;64.07;21.17;;;;;;;;;;8485628;27;20039;-91
2023/01/28 12:21:29;;;;;;;57.28;21.73;;;;;;;;;;8486265;27;20070;-89
2023/01/28 12:25:45;;;;;;;58.35;22.75;;;;;;;;;;8488242;27;20535;-88
2023/01/28 12:29:59;;;;;;;70.53;22.17;;;;;;;;;;8479411;27;20051;-90
2023/01/28 12:34:27;;;;;;;68.30;27.25;;;;;;;;;;8471148;27;20051;-91
2023/01/28 12:38:41;;;;;;;65.68;21.63;;;;;;;;;;8473186;27;20039;-92
2023/01/28 12:42:50;;;;;;;66.95;25.08;;;;;;;;;;8481663;27;20346;-85
2023/01/28 12:46:55;;;;;;;49.70;21.50;;;;;;;;;;8483241;27;20043;-87
2023/01/28 12:51:03;;;;;;;60.55;23.63;;;;;;;;;;8488336;27;20119;-85
2023/01/28 12:55:15;;;;;;;58.60;20.90;;;;;;;;;;8488989;27;20080;-87
2023/01/28 12:59:25;;;;;;;75.13;26.55;;;;;;;;;;8502923;27;20039;-86
2023/01/28 13:03:35;;;;;;;71.80;28.90;;;;;;;;;;8484000;27;20047;-86
2023/01/28 13:07:44;;;;;;;64.47;24.80;;;;;;;;;;8487879;27;20046;-88
2023/01/28 13:11:49;;;;;;;72.80;25.50;;;;;;;;;;8490890;27;20487;-86
2023/01/28 13:15:54;;;;;;;75.90;27.17;;;;;;;;;;8485936;27;20380;-86
2023/01/28 13:19:58;;;;;;;87.72;31.05;;;;;;;;;;8482365;27;20089;-84
2023/01/28 13:24:19;;;;;;;62.78;24.50;;;;;;;;;;8493366;27;20153;-85
2023/01/28 13:28:28;;;;;;;73.43;30.15;;;;;;;;;;8484271;27;20035;-89
2023/01/28 13:32:36;;;;;;;72.22;26.42;;;;;;;;;;8488581;27;20402;-90
2023/01/28 13:36:46;;;;;;;76.53;31.63;;;;;;;;;;8476984;27;20047;-91
2023/01/28 13:40:56;;;;;;;85.15;31.92;;;;;;;;;;8484443;27;20040;-91
2023/01/28 13:45:21;;;;;;;82.05;32.20;;;;;;;;;;8486755;27;20115;-92
2023/01/28 13:49:30;;;;;;;85.47;30.92;;;;;;;;;;8485474;27;20067;-93
2023/01/28 13:53:49;;;;;;;77.70;27.63;;;;;;;;;;8479063;27;20094;-90
2023/01/28 13:58:44;;;;;;;70.00;24.92;;;;;;;;;;8488644;27;20471;-93
2023/01/28 14:03:19;;;;;;;71.75;26.05;;;;;;;;;;8475262;27;20429;-92
2023/01/28 14:07:41;;;;;;;81.97;31.58;;;;;;;;;;8485375;27;20060;-89
2023/01/28 14:12:23;;;;;;;80.55;31.02;;;;;;;;;;8475083;27;20089;-86
2023/01/28 14:16:35;;;;;;;74.68;28.27;;;;;;;;;;8476125;27;20115;-88
2023/01/28 14:20:39;;;;;;;;;;;;;;;;;;8485504;27;20119;-91
2023/01/28 14:24:45;;;;;;;90.70;31.58;;;;;;;;;;8486071;27;19954;-86
2023/01/28 14:28:57;;;;;;;119.95;41.60;;;;;;;;;;8481245;27;20521;-85
2023/01/28 14:33:00;;;;;;;60.75;23.45;;;;;;;;;;8490976;27;20438;-91
2023/01/28 14:37:06;;;;;;;65.82;23.63;;;;;;;;;;8476452;27;20054;-86
2023/01/28 14:41:23;;;;;;;71.43;27.08;;;;;;;;;;8488363;27;20095;-86
2023/01/28 14:45:42;;;;;;;81.43;30.38;;;;;;;;;;8479296;27;20235;-85
2023/01/28 14:50:00;;;;;;;77.15;29.02;;;;;;;;;;8498690;27;20135;-84
2023/01/28 14:54:23;;;;;;;80.57;27.10;;;;;;;;;;8492588;27;20039;-84
2023/01/28 14:58:33;;;;;;;98.72;30.08;;;;;;;;;;8491425;27;20042;-84
2023/01/28 15:02:43;;;;;;;81.03;27.73;;;;;;;;;;8473117;27;20043;-87
2023/01/28 15:06:46;;;;;;;82.65;29.13;;;;;;;;;;8473372;27;20047;-91
2023/01/28 15:10:56;;;;;;;84.35;27.67;;;;;;;;;;8476287;27;20090;-93
2023/01/28 15:15:09;;;;;;;95.25;28.95;;;;;;;;;;8464406;28;20043;-90
2023/01/28 15:19:16;;;;;;;67.47;24.20;;;;;;;;;;8477605;28;20035;-91
2023/01/28 15:23:25;;;;;;;78.47;28.75;;;;;;;;;;8470370;28;20053;-92
2023/01/28 15:27:32;;;;;;;66.38;24.27;;;;;;;;;;8471665;28;20048;-91
2023/01/28 15:31:37;;;;;;;83.25;28.63;;;;;;;;;;8477170;28;20052;-89
2023/01/28 15:35:48;;;;;;;80.20;29.95;;;;;;;;;;8477778;28;20093;-93
2023/01/28 15:40:04;;;;;;;76.13;27.83;;;;;;;;;;8477641;28;20111;-93
2023/01/28 15:44:07;;;;;;;69.55;24.70;;;;;;;;;;8470857;28;20054;-90
2023/01/28 15:48:14;;;;;;;87.72;30.35;;;;;;;;;;8465178;28;20044;-88
2023/01/28 15:52:18;;;;;;;68.75;25.08;;;;;;;;;;8486826;27;20057;-89
2023/01/28 15:56:27;;;;;;;71.72;26.90;;;;;;;;;;8478349;28;20521;-93
2023/01/28 16:00:31;;;;;;;56.25;24.85;;;;;;;;;;8478486;28;20058;-93
2023/01/28 16:04:36;;;;;;;49.58;18.55;;;;;;;;;;8468291;28;20100;-91
2023/01/28 16:08:45;;;;;;;62.97;23.27;;;;;;;;;;8470839;27;20484;-86
2023/01/28 16:12:51;;;;;;;56.05;21.85;;;;;;;;;;8492600;27;20528;-92
2023/01/28 16:16:59;;;;;;;41.75;16.45;;;;;;;;;;8486832;27;20067;-91
2023/01/28 16:21:06;;;;;;;58.40;23.65;;;;;;;;;;8469344;28;20063;-91
2023/01/28 16:25:27;;;;;;;43.75;20.00;;;;;;;;;;8470966;27;20035;-86
2023/01/28 16:29:31;;;;;;;41.35;17.58;;;;;;;;;;8482349;27;20359;-89
2023/01/28 16:33:40;;;;;;;42.47;17.48;;;;;;;;;;8482294;27;20135;-86
2023/01/28 16:37:48;;;;;;;36.90;15.63;;;;;;;;;;8476011;27;20554;-91
2023/01/28 16:41:52;;;;;;;31.38;14.02;;;;;;;;;;8474978;27;20399;-92
2023/01/28 16:45:56;;;;;;;39.70;15.00;;;;;;;;;;8470638;27;20475;-89
2023/01/28 16:50:00;;;;;;;40.20;16.40;;;;;;;;;;8490694;27;20035;-91
2023/01/28 16:54:05;;;;;;;49.13;22.70;;;;;;;;;;8485709;27;20081;-90
2023/01/28 16:58:10;;;;;;;38.80;17.77;;;;;;;;;;8477671;27;20058;-89
2023/01/28 17:02:14;;;;;;;36.97;16.98;;;;;;;;;;8482246;27;20119;-89
2023/01/28 17:06:19;;;;;;;33.78;16.55;;;;;;;;;;8475480;27;20133;-94
2023/01/28 17:10:24;;;;;;;28.70;12.45;;;;;;;;;;8476983;27;20126;-91
2023/01/28 17:14:28;;;;;;;27.95;11.75;;;;;;;;;;8469474;27;20126;-91
2023/01/28 17:18:34;;;;;;;27.92;12.75;;;;;;;;;;8482046;27;20070;-93
2023/01/28 17:22:38;;;;;;;21.60;9.40;;;;;;;;;;8467825;28;20062;-94
2023/01/28 17:26:42;;;;;;;33.38;12.57;;;;;;;;;;8495898;27;20048;-87
2023/01/28 17:30:46;;;;;;;33.10;13.65;;;;;;;;;;8475749;27;20040;-94
2023/01/28 17:34:50;;;;;;;33.47;14.23;;;;;;;;;;8474830;27;20052;-90
2023/01/28 17:38:54;;;;;;;35.85;14.30;;;;;;;;;;8467882;27;20537;-88
2023/01/28 17:42:59;;;;;;;28.17;13.30;;;;;;;;;;8496852;27;20130;-93
2023/01/28 17:47:03;;;;;;;30.48;14.32;;;;;;;;;;8473167;27;20047;-86
2023/01/28 17:51:10;;;;;;;36.00;15.68;;;;;;;;;;8469703;27;20043;-84
2023/01/28 17:55:15;;;;;;;36.58;13.88;;;;;;;;;;8446079;27;20039;-91
2023/01/28 17:59:22;;;;;;;32.95;15.35;;;;;;;;;;8482652;27;20095;-92
2023/01/28 18:03:26;;;;;;;36.90;16.27;;;;;;;;;;8473503;27;20050;-91
2023/01/28 18:07:32;;;;;;;37.53;15.88;;;;;;;;;;8480155;27;20134;-92
2023/01/28 18:11:36;;;;;;;22.15;10.57;;;;;;;;;;8482038;27;20055;-90
2023/01/28 18:15:41;;;;;;;33.35;13.80;;;;;;;;;;8484741;27;20047;-92
2023/01/28 18:19:45;;;;;;;34.13;14.27;;;;;;;;;;8475666;27;20396;-91
2023/01/28 18:23:51;;;;;;;37.08;15.40;;;;;;;;;;8477496;27;20047;-90
2023/01/28 18:27:54;;;;;;;42.78;16.98;;;;;;;;;;8485959;27;20039;-90
2023/01/28 18:32:04;;;;;;;37.55;15.57;;;;;;;;;;8479526;27;20055;-93
2023/01/28 18:36:11;;;;;;;34.97;17.40;;;;;;;;;;8484582;27;20066;-90
2023/01/28 18:40:16;;;;;;;44.95;19.88;;;;;;;;;;8482604;27;20493;-92
2023/01/28 18:44:19;;;;;;;35.42;16.42;;;;;;;;;;8481363;27;20480;-93
2023/01/28 18:48:26;;;;;;;26.85;12.80;;;;;;;;;;8479108;27;20042;-92
2023/01/28 18:52:30;;;;;;;34.15;16.00;;;;;;;;;;8486332;27;20047;-91
2023/01/28 18:56:34;;;;;;;72.38;27.60;;;;;;;;;;8480513;27;20062;-93
2023/01/28 19:00:40;;;;;;;40.17;16.80;;;;;;;;;;8476209;27;20058;-94
2023/01/28 19:04:46;;;;;;;29.30;13.60;;;;;;;;;;8480288;27;20051;-90
2023/01/28 19:08:53;;;;;;;25.20;13.18;;;;;;;;;;8459135;28;20077;-90
2023/01/28 19:12:58;;;;;;;26.65;11.27;;;;;;;;;;8477746;27;20047;-92
2023/01/28 19:17:02;;;;;;;27.77;12.02;;;;;;;;;;8468351;27;20097;-92
2023/01/28 19:21:11;;;;;;;22.40;11.35;;;;;;;;;;8479911;27;20048;-93
2023/01/28 19:25:17;;;;;;;18.67;8.93;;;;;;;;;;8417655;27;20079;-92
2023/01/28 19:29:33;;;;;;;21.15;9.90;;;;;;;;;;8480091;27;20047;-95
2023/01/28 19:33:45;;;;;;;22.55;9.48;;;;;;;;;;8469395;27;20056;-92
2023/01/28 19:37:52;;;;;;;22.92;8.82;;;;;;;;;;8471888;27;20036;-89
2023/01/28 19:42:00;;;;;;;19.92;9.85;;;;;;;;;;8486759;27;20119;-92
2023/01/28 19:46:13;;;;;;;23.63;10.55;;;;;;;;;;8490872;27;20054;-91
2023/01/28 19:50:17;;;;;;;18.42;8.20;;;;;;;;;;8477930;27;20104;-90
2023/01/28 19:54:23;;;;;;;20.65;8.43;;;;;;;;;;8483617;27;20581;-92
2023/01/28 19:58:29;;;;;;;21.77;9.63;;;;;;;;;;8480430;27;20047;-93
2023/01/28 20:02:33;;;;;;;21.92;8.63;;;;;;;;;;8480749;27;20487;-92
2023/01/28 20:06:38;;;;;;;29.02;11.25;;;;;;;;;;8490106;27;20042;-94
2023/01/28 20:10:44;;;;;;;26.75;10.18;;;;;;;;;;8479073;27;20047;-90
2023/01/28 20:14:48;;;;;;;29.75;12.45;;;;;;;;;;8489169;27;20058;-92
2023/01/28 20:18:54;;;;;;;19.27;9.30;;;;;;;;;;8469902;27;20059;-90
2023/01/28 20:22:59;;;;;;;28.42;11.57;;;;;;;;;;8469843;28;20051;-93
2023/01/28 20:27:04;;;;;;;16.02;7.50;;;;;;;;;;8483654;27;20044;-94
2023/01/28 20:31:15;;;;;;;23.17;9.07;;;;;;;;;;8485696;27;20039;-92
2023/01/28 20:35:21;;;;;;;6.85;4.05;;;;;;;;;;8468716;28;20067;-92
2023/01/28 20:39:31;;;;;;;25.73;10.77;;;;;;;;;;8482138;27;20067;-93
2023/01/28 20:43:38;;;;;;;37.53;12.35;;;;;;;;;;8482847;27;20043;-91
2023/01/28 20:47:51;;;;;;;57.63;19.08;;;;;;;;;;8450570;28;20051;-91
2023/01/28 20:51:59;;;;;;;33.78;13.23;;;;;;;;;;8479676;27;20049;-93
2023/01/28 20:56:03;;;;;;;17.38;8.13;;;;;;;;;;8469350;28;20043;-93
2023/01/28 21:00:11;;;;;;;21.77;10.82;;;;;;;;;;8468908;28;20134;-89
2023/01/28 21:04:18;;;;;;;26.85;13.05;;;;;;;;;;8480108;27;20136;-91
2023/01/28 21:08:23;;;;;;;13.55;6.80;;;;;;;;;;8467513;27;20058;-92
2023/01/28 21:12:28;;;;;;;14.75;7.28;;;;;;;;;;8477498;27;20044;-89
2023/01/28 21:16:39;;;;;;;19.25;8.18;;;;;;;;;;8478427;27;20121;-90
2023/01/28 21:20:43;;;;;;;16.58;7.32;;;;;;;;;;8495380;27;20039;-90
2023/01/28 21:24:49;;;;;;;6.80;3.53;;;;;;;;;;8484717;27;20039;-94
2023/01/28 21:29:03;;;;;;;14.52;6.75;;;;;;;;;;8487057;27;20047;-94
2023/01/28 21:33:09;;;;;;;8.15;4.45;;;;;;;;;;8488403;27;20039;-91
2023/01/28 21:37:13;;;;;;;13.07;7.22;;;;;;;;;;8496956;27;20063;-91
2023/01/28 21:41:17;;;;;;;11.20;5.00;;;;;;;;;;8480537;27;20051;-92
2023/01/28 21:45:20;;;;;;;14.73;6.90;;;;;;;;;;8494501;27;20048;-89
2023/01/28 21:49:25;;;;;;;14.10;6.95;;;;;;;;;;8468310;27;20043;-87
2023/01/28 21:53:28;;;;;;;7.30;4.45;;;;;;;;;;8482390;27;20067;-91
2023/01/28 21:57:31;;;;;;;16.65;7.15;;;;;;;;;;8480020;27;20411;-89
2023/01/28 22:01:35;;;;;;;23.30;8.75;;;;;;;;;;8479848;27;20122;-90
2023/01/28 22:05:39;;;;;;;19.85;9.05;;;;;;;;;;8466624;28;20063;-93
2023/01/28 22:09:42;;;;;;;19.08;8.75;;;;;;;;;;8497894;27;20066;-91
2023/01/28 22:13:45;;;;;;;21.92;9.20;;;;;;;;;;8474521;27;20483;-89
2023/01/28 22:17:48;;;;;;;19.00;9.73;;;;;;;;;;8466078;28;20043;-87
2023/01/28 22:21:53;;;;;;;12.48;6.20;;;;;;;;;;8477109;27;20126;-92
2023/01/28 22:25:56;;;;;;;18.60;8.88;;;;;;;;;;8462743;28;20096;-91
2023/01/28 22:29:59;;;;;;;17.67;9.32;;;;;;;;;;8469875;27;20081;-89
2023/01/28 22:34:02;;;;;;;20.02;9.48;;;;;;;;;;8465333;27;20055;-90
2023/01/28 22:38:07;;;;;;;19.23;8.07;;;;;;;;;;8478103;27;20081;-89
2023/01/28 22:42:10;;;;;;;24.27;10.80;;;;;;;;;;8465444;27;20126;-87
2023/01/28 22:46:13;;;;;;;25.73;11.27;;;;;;;;;;8479080;27;20127;-90
2023/01/28 22:50:17;;;;;;;19.17;9.50;;;;;;;;;;8478656;27;20130;-87
2023/01/28 22:54:21;;;;;;;22.63;9.55;;;;;;;;;;8426567;27;20048;-88
2023/01/28 22:58:24;;;;;;;17.55;8.50;;;;;;;;;;8492166;27;20552;-91
2023/01/28 23:02:27;;;;;;;19.83;9.70;;;;;;;;;;8478290;27;20070;-92
2023/01/28 23:06:30;;;;;;;20.67;9.77;;;;;;;;;;8471667;27;20043;-90
2023/01/28 23:10:35;;;;;;;13.35;5.90;;;;;;;;;;8464358;28;20097;-91
2023/01/28 23:27:40;;;;;;;13.38;6.93;;;;;;;;;;8483243;28;20193;-88
2023/01/28 23:31:45;;;;;;;16.92;8.57;;;;;;;;;;8485472;28;20121;-91
2023/01/28 23:35:48;;;;;;;17.75;7.97;;;;;;;;;;8497497;28;20160;-89
2023/01/28 23:39:51;;;;;;;5.90;3.72;;;;;;;;;;8475790;28;20050;-93
2023/01/28 23:43:55;;;;;;;18.70;8.00;;;;;;;;;;8463826;28;20054;-87
2023/01/28 23:47:58;;;;;;;11.48;5.68;;;;;;;;;;8463720;28;20044;-88
2023/01/28 23:52:02;;;;;;;6.90;3.97;;;;;;;;;;8477727;28;20767;-91
2023/01/28 23:56:06;;;;;;;18.50;8.85;;;;;;;;;;8472527;28;20039;-87
